Time;durP1;ratioP1;P1;durP2;ratioP2;P2;SDS_P1;SDS_P2;PMS_P1;PMS_P2;Temp;Humidity;BMP_temperature;BMP_pressure;BME280_temperature;BME280_humidity;BME280_pressure;Samples;Min_cycle;Max_cycle;Signal;HPM_P1;HPM_P2
2022/12/10 00:01:49;;;;;;;97.43;31.98;;;-2.40;99.90;;;;;;5103347;27;20900;-79
2022/12/10 00:04:15;;;;;;;92.00;31.48;;;-2.20;99.90;;;;;;5113257;27;20043;-79
2022/12/10 00:06:41;;;;;;;101.15;34.47;;;-2.10;99.90;;;;;;5088695;28;20472;-79
2022/12/10 00:09:11;;;;;;;107.78;35.72;;;-2.10;99.90;;;;;;5083155;27;20039;-79
2022/12/10 00:11:38;;;;;;;100.20;32.53;;;-2.00;99.90;;;;;;5115235;27;20074;-81
2022/12/10 00:14:04;;;;;;;101.18;34.53;;;-1.90;99.90;;;;;;5120918;27;20090;-79
2022/12/10 00:16:33;;;;;;;100.30;34.42;;;-1.80;99.90;;;;;;5091049;27;20050;-80
2022/12/10 00:18:59;;;;;;;110.97;34.15;;;-1.70;99.90;;;;;;5082619;27;20046;-79
2022/12/10 00:21:33;;;;;;;107.30;34.42;;;-1.70;99.90;;;;;;5081074;27;20044;-84
2022/12/10 00:23:59;;;;;;;98.13;35.55;;;-1.60;99.90;;;;;;5098647;27;20416;-79
2022/12/10 00:26:31;;;;;;;108.28;34.17;;;-1.60;99.90;;;;;;5114057;27;20183;-83
2022/12/10 00:28:57;;;;;;;109.40;36.08;;;-1.60;99.90;;;;;;5129415;27;20081;-81
2022/12/10 00:31:29;;;;;;;112.57;37.03;;;-1.60;99.90;;;;;;5111843;27;20035;-79
2022/12/10 00:33:56;;;;;;;102.68;35.33;;;-1.60;99.90;;;;;;5097834;27;20058;-79
2022/12/10 00:36:31;;;;;;;116.05;36.50;;;-1.70;99.90;;;;;;5107455;27;20488;-78
2022/12/10 00:38:56;;;;;;;106.18;34.47;;;-1.70;99.90;;;;;;5103075;27;20073;-79
2022/12/10 00:41:22;;;;;;;104.63;33.47;;;-1.80;99.90;;;;;;5108600;27;20051;-80
2022/12/10 00:43:48;;;;;;;104.80;34.78;;;-1.80;99.90;;;;;;5104686;27;20637;-79
2022/12/10 00:46:17;;;;;;;107.60;34.95;;;-1.90;99.90;;;;;;5097236;27;20100;-79
2022/12/10 00:48:43;;;;;;;106.47;34.92;;;-1.90;99.90;;;;;;5089958;27;20059;-79
2022/12/10 00:51:15;;;;;;;110.28;35.28;;;-2.00;99.90;;;;;;5099351;27;20463;-83
2022/12/10 00:53:43;;;;;;;105.15;35.05;;;-2.00;99.90;;;;;;5104303;27;20039;-80
2022/12/10 00:56:10;;;;;;;103.30;33.45;;;-2.00;99.90;;;;;;5122689;27;20053;-81
2022/12/10 00:58:37;;;;;;;94.25;32.35;;;-2.10;99.90;;;;;;5112456;27;20031;-80
2022/12/10 01:01:23;;;;;;;98.68;32.97;;;-2.10;99.90;;;;;;5094103;27;20483;-80
2022/12/10 01:03:51;;;;;;;106.93;33.97;;;-2.10;99.90;;;;;;5089044;28;20052;-79
2022/12/10 01:06:27;;;;;;;106.90;34.97;;;-2.10;99.90;;;;;;5083812;27;20043;-80
2022/12/10 01:08:55;;;;;;;114.63;36.75;;;-2.10;99.90;;;;;;5086797;27;20666;-78
2022/12/10 01:11:24;;;;;;;110.78;36.60;;;-2.10;99.90;;;;;;5105109;27;20038;-79
2022/12/10 01:13:51;;;;;;;105.63;35.25;;;-2.10;99.90;;;;;;5095765;27;20050;-82
2022/12/10 01:16:19;;;;;;;101.38;33.08;;;-2.20;99.90;;;;;;5088237;27;20125;-79
2022/12/10 01:18:45;;;;;;;110.90;35.15;;;-2.20;99.90;;;;;;5091672;27;20058;-79
2022/12/10 01:21:13;;;;;;;109.45;36.00;;;-2.30;99.90;;;;;;5121162;27;20038;-80
2022/12/10 01:23:41;;;;;;;107.03;35.30;;;-2.40;99.90;;;;;;5106175;27;20085;-80
2022/12/10 01:26:09;;;;;;;111.47;35.88;;;-2.40;99.90;;;;;;5091473;27;20043;-79
2022/12/10 01:28:37;;;;;;;116.70;37.38;;;-2.40;99.90;;;;;;5120177;27;20047;-84
2022/12/10 01:31:09;;;;;;;114.68;36.75;;;-2.50;99.90;;;;;;5109938;27;20833;-79
2022/12/10 01:33:35;;;;;;;114.20;36.55;;;-2.50;99.90;;;;;;5113351;27;20052;-79
2022/12/10 01:36:07;;;;;;;112.65;35.63;;;-2.50;99.90;;;;;;5078074;27;20096;-79
2022/12/10 01:38:32;;;;;;;108.90;35.25;;;-2.60;99.90;;;;;;5111403;27;20047;-79
2022/12/10 01:40:59;;;;;;;113.22;35.95;;;-2.60;99.90;;;;;;5061040;27;20043;-79
2022/12/10 01:43:25;;;;;;;115.05;35.50;;;-2.60;99.90;;;;;;5111961;27;20035;-79
2022/12/10 01:45:51;;;;;;;111.13;36.45;;;-2.70;99.90;;;;;;5087717;28;20129;-79
2022/12/10 01:48:18;;;;;;;100.93;33.42;;;-2.70;99.90;;;;;;5112129;27;20508;-80
2022/12/10 01:50:43;;;;;;;101.82;34.47;;;-2.70;99.50;;;;;;5094328;27;20059;-80
2022/12/10 01:53:10;;;;;;;114.93;35.42;;;-2.60;99.40;;;;;;5091264;28;20047;-79
2022/12/10 01:55:38;;;;;;;118.95;35.55;;;-2.60;99.40;;;;;;5086282;28;20058;-81
2022/12/10 01:58:04;;;;;;;122.78;37.67;;;-2.60;99.90;;;;;;5094005;28;20135;-79
2022/12/10 02:00:34;;;;;;;106.68;34.45;;;-2.60;98.90;;;;;;5095087;28;20088;-80
2022/12/10 02:03:08;;;;;;;112.28;36.50;;;-2.60;99.60;;;;;;5081759;27;20812;-80
2022/12/10 02:05:45;;;;;;;117.70;37.55;;;-2.60;99.90;;;;;;5094423;28;20625;-79
2022/12/10 02:08:19;;;;;;;120.50;37.08;;;-2.60;99.90;;;;;;5094395;28;20055;-79
2022/12/10 02:11:17;;;;;;;116.65;37.33;;;-2.60;99.90;;;;;;5091642;28;20061;-80
2022/12/10 02:13:55;;;;;;;124.05;37.22;;;-2.60;99.40;;;;;;5089175;28;20047;-83
2022/12/10 02:16:37;;;;;;;113.15;36.80;;;-2.70;98.20;;;;;;5111302;28;20069;-80
2022/12/10 02:19:34;;;;;;;121.63;36.28;;;-2.60;98.40;;;;;;5088331;28;20115;-81
2022/12/10 02:22:02;;;;;;;117.43;38.55;;;-2.70;98.90;;;;;;5109995;28;20570;-81
2022/12/10 02:24:33;;;;;;;125.78;38.30;;;-2.70;98.70;;;;;;5073758;28;20035;-79
2022/12/10 02:27:16;;;;;;;127.05;37.33;;;-2.70;98.40;;;;;;5101295;27;20533;-80
2022/12/10 02:29:46;;;;;;;128.05;37.80;;;-2.60;98.20;;;;;;5095120;28;20039;-81
2022/12/10 02:32:17;;;;;;;135.43;39.85;;;-2.70;97.80;;;;;;5106448;28;20492;-79
2022/12/10 02:34:47;;;;;;;114.32;36.80;;;-2.80;96.40;;;;;;5090610;28;20050;-79
2022/12/10 02:37:22;;;;;;;127.85;39.25;;;-2.70;96.70;;;;;;5089731;28;20074;-79
2022/12/10 02:39:52;;;;;;;138.55;41.92;;;-2.70;97.60;;;;;;5100082;28;20046;-83
2022/12/10 02:42:21;;;;;;;126.93;38.65;;;-2.70;97.30;;;;;;5093910;28;20050;-78
2022/12/10 02:44:49;;;;;;;126.13;40.00;;;-2.60;98.70;;;;;;5095086;27;20582;-84
2022/12/10 02:47:16;;;;;;;136.85;39.13;;;-2.60;97.30;;;;;;5110515;28;20047;-79
2022/12/10 02:49:45;;;;;;;126.75;38.95;;;-2.60;97.50;;;;;;5111590;28;20053;-79
2022/12/10 02:52:17;;;;;;;139.45;40.63;;;-2.60;96.00;;;;;;5107170;28;20036;-79
2022/12/10 02:54:45;;;;;;;132.73;41.35;;;-2.60;95.30;;;;;;5107554;27;20051;-80
2022/12/10 02:57:28;;;;;;;132.35;40.50;;;-2.60;94.60;;;;;;5112001;27;20126;-80
2022/12/10 03:00:19;;;;;;;123.53;39.92;;;-2.70;93.30;;;;;;5108990;27;20419;-79
2022/12/10 03:03:08;;;;;;;131.07;41.13;;;-2.70;92.70;;;;;;5102320;28;20043;-79
2022/12/10 03:05:42;;;;;;;124.20;39.60;;;-2.70;91.40;;;;;;5096981;27;20495;-79
2022/12/10 03:08:14;;;;;;;131.73;39.75;;;-2.70;88.90;;;;;;5111692;27;20054;-79
2022/12/10 03:10:52;;;;;;;129.73;38.03;;;-2.80;88.40;;;;;;5105985;27;20073;-81
2022/12/10 03:13:23;;;;;;;143.52;40.25;;;-2.80;84.30;;;;;;5096615;27;20035;-79
2022/12/10 03:15:51;;;;;;;132.18;40.65;;;-2.70;81.80;;;;;;5113844;27;20051;-80
2022/12/10 03:18:20;;;;;;;143.70;41.22;;;-2.90;78.40;;;;;;5096368;27;20043;-79
2022/12/10 03:20:47;;;;;;;144.40;41.75;;;-3.00;76.80;;;;;;5083379;27;20056;-79
2022/12/10 03:23:18;;;;;;;135.50;40.88;;;-3.00;73.60;;;;;;5113195;27;20682;-80
2022/12/10 03:25:46;;;;;;;133.13;39.97;;;-2.90;76.10;;;;;;5080487;28;20536;-79
2022/12/10 03:28:13;;;;;;;134.77;39.58;;;-2.90;76.50;;;;;;5097001;27;20047;-79
2022/12/10 03:30:41;;;;;;;140.68;39.58;;;-2.90;75.50;;;;;;5090253;27;20088;-79
2022/12/10 03:33:07;;;;;;;134.50;39.13;;;-2.90;74.70;;;;;;5110805;27;20035;-79
2022/12/10 03:35:33;;;;;;;132.15;40.25;;;-2.90;72.90;;;;;;5095024;27;20047;-78
2022/12/10 03:37:59;;;;;;;132.63;40.38;;;-3.00;70.50;;;;;;5090846;27;20206;-79
2022/12/10 03:40:25;;;;;;;131.18;39.17;;;-3.00;67.10;;;;;;5113422;27;20509;-79
2022/12/10 03:42:51;;;;;;;134.68;39.67;;;-3.00;65.50;;;;;;5113281;27;20392;-79
2022/12/10 03:45:17;;;;;;;140.25;42.33;;;-3.10;63.90;;;;;;5112339;27;20050;-79
2022/12/10 03:47:42;;;;;;;130.90;40.13;;;-3.10;63.10;;;;;;5111827;27;20456;-80
2022/12/10 03:50:09;;;;;;;140.95;40.97;;;-3.10;63.90;;;;;;5084517;28;20051;-79
2022/12/10 03:52:35;;;;;;;145.40;40.80;;;-3.10;62.60;;;;;;5093299;27;20042;-81
2022/12/10 03:55:00;;;;;;;133.27;40.67;;;-3.20;60.90;;;;;;5091916;27;20058;-80
2022/12/10 03:57:26;;;;;;;126.55;39.63;;;-3.20;56.00;;;;;;5109679;27;20039;-80
2022/12/10 03:59:52;;;;;;;139.18;40.65;;;-3.20;53.40;;;;;;5078808;27;20043;-79
2022/12/10 04:02:18;;;;;;;135.68;39.60;;;-3.20;53.90;;;;;;5092569;27;20054;-79
2022/12/10 04:04:44;;;;;;;146.63;44.40;;;-3.20;51.30;;;;;;5080490;27;20047;-80
2022/12/10 04:07:09;;;;;;;137.32;42.05;;;-3.20;48.60;;;;;;5094072;27;20042;-79
2022/12/10 04:09:35;;;;;;;131.52;39.80;;;-3.30;44.70;;;;;;5094451;27;20085;-80
2022/12/10 04:12:01;;;;;;;132.40;40.00;;;-3.30;44.10;;;;;;5108412;27;20047;-83
2022/12/10 04:17:12;;;;;;;138.98;41.15;;;-3.30;41.90;;;;;;5134699;27;20435;-80
2022/12/10 04:19:38;;;;;;;141.32;41.25;;;-3.30;40.70;;;;;;5113355;27;20043;-80
2022/12/10 04:27:38;;;;;;;147.43;41.47;;;-3.30;38.20;;;;;;5113187;27;20400;-79
2022/12/10 04:30:07;;;;;;;133.70;42.67;;;-3.40;36.80;;;;;;5113272;27;20137;-84
2022/12/10 04:32:33;;;;;;;134.43;40.17;;;-3.40;37.70;;;;;;5112445;27;20120;-79
2022/12/10 04:34:59;;;;;;;141.13;40.95;;;-3.40;37.40;;;;;;5096274;27;20082;-79
2022/12/10 04:37:27;;;;;;;144.02;43.13;;;-3.30;38.60;;;;;;5078293;27;20080;-81
2022/12/10 04:39:53;;;;;;;144.27;40.22;;;-3.30;39.20;;;;;;5096498;27;20039;-80
2022/12/10 04:42:20;;;;;;;160.05;45.08;;;-3.30;39.90;;;;;;5112444;27;20134;-81
2022/12/10 04:44:46;;;;;;;148.15;42.97;;;-3.30;42.30;;;;;;5099970;27;20264;-80
2022/12/10 04:47:12;;;;;;;151.35;43.33;;;-3.20;40.40;;;;;;5086057;27;20076;-80
2022/12/10 04:49:38;;;;;;;148.18;42.17;;;-3.30;39.30;;;;;;5095868;27;20043;-79
2022/12/10 04:52:05;;;;;;;151.63;42.83;;;-3.20;41.00;;;;;;5089730;27;20508;-80
2022/12/10 04:54:31;;;;;;;137.90;40.28;;;-3.20;42.40;;;;;;5111964;27;20126;-80
2022/12/10 04:56:57;;;;;;;144.02;40.45;;;-3.20;42.10;;;;;;5094390;27;20142;-80
2022/12/10 04:59:23;;;;;;;136.85;39.22;;;-3.20;38.70;;;;;;5099265;27;20031;-79
2022/12/10 05:01:49;;;;;;;142.90;40.28;;;-3.20;36.20;;;;;;5105090;27;20055;-79
2022/12/10 05:04:17;;;;;;;140.55;43.00;;;-3.30;34.40;;;;;;5090283;27;20577;-80
2022/12/10 05:06:44;;;;;;;139.85;42.22;;;-3.30;33.40;;;;;;5111948;27;20122;-81
2022/12/10 05:09:11;;;;;;;140.93;41.80;;;-3.40;31.90;;;;;;5091198;27;20150;-83
2022/12/10 05:11:37;;;;;;;138.63;41.80;;;-3.40;30.00;;;;;;5089767;27;20067;-80
2022/12/10 05:14:03;;;;;;;141.48;42.65;;;-3.40;29.30;;;;;;5089904;27;20078;-80
2022/12/10 05:16:30;;;;;;;137.23;39.42;;;-3.40;30.10;;;;;;5085724;27;20082;-80
2022/12/10 05:18:57;;;;;;;133.95;40.30;;;-3.50;27.50;;;;;;5110943;27;20055;-80
2022/12/10 05:23:27;;;;;;;143.07;41.25;;;-3.50;26.10;;;;;;5113633;27;20031;-80
2022/12/10 05:24:10;;;;;;;128.20;38.55;;;-3.50;25.50;;;;;;5107998;27;20082;-84
2022/12/10 05:26:36;;;;;;;150.07;43.10;;;-3.50;27.10;;;;;;5107324;27;20082;-81
2022/12/10 05:29:02;;;;;;;146.23;41.20;;;-3.50;25.60;;;;;;5091819;27;20057;-80
2022/12/10 05:31:29;;;;;;;128.88;40.78;;;-3.50;23.90;;;;;;5095202;27;20044;-81
2022/12/10 05:33:56;;;;;;;142.05;40.28;;;-3.50;20.80;;;;;;5116680;27;20146;-80
2022/12/10 05:36:25;;;;;;;142.23;42.90;;;-3.60;22.60;;;;;;5099367;27;20039;-80
2022/12/10 05:38:52;;;;;;;135.02;40.65;;;-3.60;24.10;;;;;;5112006;27;20043;-80
2022/12/10 05:41:24;;;;;;;132.65;39.75;;;-3.60;22.60;;;;;;5099212;27;20035;-80
2022/12/10 05:43:51;;;;;;;146.60;43.15;;;-3.50;24.00;;;;;;5093212;27;20396;-80
2022/12/10 05:46:19;;;;;;;137.05;40.92;;;-3.50;22.80;;;;;;5101960;27;20058;-84
2022/12/10 05:48:45;;;;;;;140.98;41.28;;;-3.50;23.20;;;;;;5110947;27;20059;-84
2022/12/10 05:51:14;;;;;;;147.32;42.25;;;-3.60;22.10;;;;;;5110498;27;20096;-81
2022/12/10 05:53:39;;;;;;;144.27;42.38;;;-3.50;21.20;;;;;;5104133;27;20067;-80
2022/12/10 05:56:12;;;;;;;139.43;42.47;;;-3.60;20.30;;;;;;5108457;27;20496;-81
2022/12/10 05:58:38;;;;;;;132.13;40.35;;;-3.60;16.70;;;;;;5103483;28;20512;-82
2022/12/10 06:01:09;;;;;;;132.82;41.25;;;-3.60;14.40;;;;;;5110693;28;20065;-80
2022/12/10 06:03:34;;;;;;;145.38;42.25;;;-3.60;15.40;;;;;;5109756;27;20066;-81
2022/12/10 06:06:00;;;;;;;133.32;41.28;;;-3.60;16.60;;;;;;5115567;28;20042;-81
2022/12/10 06:08:26;;;;;;;147.82;44.45;;;-3.50;19.80;;;;;;5085977;27;20478;-83
2022/12/10 06:10:51;;;;;;;145.02;42.08;;;-3.50;20.20;;;;;;5067602;28;20047;-80
2022/12/10 06:13:17;;;;;;;145.77;44.15;;;-3.50;20.80;;;;;;5080844;27;20039;-82
2022/12/10 06:15:43;;;;;;;140.02;40.85;;;-3.40;25.40;;;;;;5096974;27;20051;-80
2022/12/10 06:18:09;;;;;;;143.15;43.13;;;-3.40;28.80;;;;;;5146198;27;20093;-81
2022/12/10 06:20:39;;;;;;;144.07;43.75;;;-3.30;32.50;;;;;;5112916;28;20412;-81
2022/12/10 06:23:05;;;;;;;156.38;44.35;;;-3.30;33.90;;;;;;5108996;28;20073;-82
2022/12/10 06:25:31;;;;;;;151.95;43.65;;;-3.30;35.40;;;;;;5074911;28;20051;-81
2022/12/10 06:27:56;;;;;;;140.00;43.95;;;-3.20;36.40;;;;;;5107620;27;20078;-80
2022/12/10 06:30:22;;;;;;;153.43;43.17;;;-3.20;40.90;;;;;;5092832;27;20070;-84
2022/12/10 06:32:48;;;;;;;158.35;44.90;;;-3.10;44.20;;;;;;5092388;27;20051;-80
2022/12/10 06:35:13;;;;;;;152.20;45.00;;;-3.10;47.50;;;;;;5094071;28;20551;-81
2022/12/10 06:37:39;;;;;;;149.32;44.88;;;-3.00;51.20;;;;;;5095476;27;20047;-80
2022/12/10 06:40:05;;;;;;;148.90;43.30;;;-2.90;53.90;;;;;;5111750;27;20121;-80
2022/12/10 06:42:31;;;;;;;153.98;44.35;;;-2.90;55.10;;;;;;5093197;27;20042;-84
2022/12/10 06:44:57;;;;;;;158.95;44.38;;;-2.90;57.20;;;;;;5116052;27;20133;-81
2022/12/10 06:47:23;;;;;;;153.90;44.78;;;-2.80;60.20;;;;;;5097591;27;20134;-84
2022/12/10 06:49:48;;;;;;;155.63;44.42;;;-2.80;62.10;;;;;;5079974;27;20047;-81
2022/12/10 06:52:14;;;;;;;167.95;46.75;;;-2.80;64.30;;;;;;5125660;27;20046;-81
2022/12/10 06:54:40;;;;;;;164.35;46.55;;;-2.70;69.90;;;;;;5091975;27;20046;-81
2022/12/10 06:57:05;;;;;;;155.57;44.45;;;-2.70;72.70;;;;;;5096843;27;20039;-80
2022/12/10 06:59:31;;;;;;;155.13;44.88;;;-2.60;75.80;;;;;;5120261;27;20042;-78
2022/12/10 07:01:57;;;;;;;180.30;46.25;;;-2.60;80.00;;;;;;5078648;27;20031;-79
2022/12/10 07:04:23;;;;;;;166.07;47.15;;;-2.50;86.50;;;;;;5100791;27;20127;-80
2022/12/10 07:06:48;;;;;;;165.25;43.88;;;-2.50;88.70;;;;;;5114497;27;20446;-80
2022/12/10 07:09:15;;;;;;;161.40;44.25;;;-2.40;91.50;;;;;;5084526;27;20050;-79
2022/12/10 07:11:42;;;;;;;155.57;48.00;;;-2.40;92.90;;;;;;5114224;27;20444;-78
2022/12/10 07:14:11;;;;;;;157.55;45.67;;;-2.40;93.50;;;;;;5115113;27;20047;-78
2022/12/10 07:16:37;;;;;;;149.23;43.70;;;-2.40;95.00;;;;;;5117687;27;20625;-77
2022/12/10 07:19:03;;;;;;;156.90;45.17;;;-2.30;96.20;;;;;;5094623;27;20039;-77
2022/12/10 07:21:34;;;;;;;156.02;46.25;;;-2.30;97.90;;;;;;5114472;27;20441;-84
2022/12/10 07:24:06;;;;;;;153.38;43.47;;;-2.30;99.40;;;;;;5115511;27;20130;-79
2022/12/10 07:26:34;;;;;;;159.40;45.65;;;-2.20;99.90;;;;;;5113067;27;20088;-77
2022/12/10 07:29:02;;;;;;;154.50;45.97;;;-2.20;99.90;;;;;;5129794;27;20391;-77
2022/12/10 07:31:28;;;;;;;157.23;45.40;;;-2.20;99.90;;;;;;5085942;27;20492;-80
2022/12/10 07:33:56;;;;;;;152.02;45.42;;;-2.20;99.90;;;;;;5098425;27;20062;-76
2022/12/10 07:36:23;;;;;;;168.93;46.63;;;-2.20;99.90;;;;;;5115559;27;20043;-76
2022/12/10 07:38:49;;;;;;;166.05;46.70;;;-2.20;99.90;;;;;;5097257;27;20051;-78
2022/12/10 07:41:15;;;;;;;161.32;45.40;;;-2.20;99.90;;;;;;5107472;27;20075;-77
2022/12/10 07:43:43;;;;;;;164.07;46.13;;;-2.10;99.90;;;;;;5129452;27;20078;-81
2022/12/10 07:46:13;;;;;;;168.35;45.70;;;-2.10;99.90;;;;;;5094487;27;20535;-76
2022/12/10 07:48:41;;;;;;;167.70;47.92;;;-2.10;99.90;;;;;;5115837;27;20458;-77
2022/12/10 07:51:07;;;;;;;154.65;46.15;;;-2.10;99.90;;;;;;5113796;27;20384;-78
2022/12/10 07:53:33;;;;;;;164.25;47.63;;;-2.00;99.90;;;;;;5111387;27;20074;-83
2022/12/10 07:55:59;;;;;;;163.77;45.90;;;-2.00;99.90;;;;;;5109945;27;20051;-77
2022/12/10 07:58:24;;;;;;;164.35;47.80;;;-2.00;99.90;;;;;;5114928;27;20829;-80
2022/12/10 08:00:50;;;;;;;155.95;46.33;;;-1.90;99.90;;;;;;5112251;27;20049;-81
2022/12/10 08:03:16;;;;;;;169.73;47.30;;;-1.90;99.90;;;;;;5080445;27;20035;-78
2022/12/10 08:05:42;;;;;;;163.50;47.67;;;-1.90;99.90;;;;;;5117006;27;20104;-79
2022/12/10 08:08:08;;;;;;;157.95;46.50;;;-1.90;99.90;;;;;;5088967;27;20043;-78
2022/12/10 08:10:35;;;;;;;160.45;44.45;;;-1.90;99.90;;;;;;5070179;27;20053;-80
2022/12/10 08:13:00;;;;;;;166.45;47.20;;;-1.90;99.90;;;;;;5090943;27;20039;-82
2022/12/10 08:15:28;;;;;;;164.85;48.00;;;-1.90;99.90;;;;;;5080882;27;20039;-85
2022/12/10 08:17:55;;;;;;;159.05;46.60;;;-1.80;99.90;;;;;;5094867;27;20085;-81
2022/12/10 08:20:21;;;;;;;170.35;47.05;;;-1.80;99.90;;;;;;5095785;27;20118;-81
2022/12/10 08:22:47;;;;;;;162.65;45.05;;;-1.80;99.90;;;;;;5096653;27;20400;-80
2022/12/10 08:25:12;;;;;;;174.10;48.17;;;-1.80;99.90;;;;;;5097974;27;20047;-80
2022/12/10 08:27:38;;;;;;;172.73;49.88;;;-1.80;99.90;;;;;;5080834;27;20054;-88
2022/12/10 08:30:05;;;;;;;176.50;48.33;;;-1.80;99.90;;;;;;5094969;27;20050;-81
2022/12/10 08:32:30;;;;;;;163.50;46.83;;;-1.80;99.90;;;;;;5114616;27;20567;-80
2022/12/10 08:34:56;;;;;;;166.63;46.80;;;-1.80;99.90;;;;;;5086398;27;20169;-80
2022/12/10 08:37:22;;;;;;;161.80;45.88;;;-1.70;99.90;;;;;;5079113;27;20051;-79
2022/12/10 08:39:47;;;;;;;170.68;48.35;;;-1.70;99.90;;;;;;5111999;27;20047;-80
2022/12/10 08:42:13;;;;;;;163.68;45.35;;;-1.70;99.90;;;;;;5095109;27;20054;-79
2022/12/10 08:44:39;;;;;;;160.00;46.83;;;-1.70;99.90;;;;;;5096739;27;20058;-79
2022/12/10 08:47:05;;;;;;;161.00;45.80;;;-1.70;99.90;;;;;;5066205;27;20142;-79
2022/12/10 08:49:31;;;;;;;164.85;46.65;;;-1.70;99.90;;;;;;5097068;27;20050;-79
2022/12/10 08:51:57;;;;;;;157.73;45.88;;;-1.70;99.90;;;;;;5095821;27;20043;-79
2022/12/10 08:54:22;;;;;;;177.88;47.28;;;-1.60;99.90;;;;;;5098070;27;20050;-80
2022/12/10 08:56:48;;;;;;;178.20;47.88;;;-1.60;99.90;;;;;;5083879;27;20065;-80
2022/12/10 08:59:14;;;;;;;175.63;47.80;;;-1.50;99.90;;;;;;5097522;27;20039;-79
2022/12/10 09:01:40;;;;;;;164.88;46.00;;;-1.50;99.90;;;;;;5107642;27;20035;-79
2022/12/10 09:04:06;;;;;;;170.60;47.78;;;-1.40;99.90;;;;;;5077350;28;20126;-79
2022/12/10 09:06:32;;;;;;;166.88;47.92;;;-1.30;99.90;;;;;;5094334;27;20046;-79
2022/12/10 09:08:58;;;;;;;166.52;48.80;;;-1.20;99.90;;;;;;5102222;27;20038;-79
2022/12/10 09:11:32;;;;;;;180.10;48.65;;;-1.20;99.90;;;;;;5102739;27;20387;-81
2022/12/10 09:13:58;;;;;;;165.18;47.80;;;-1.10;99.90;;;;;;5114334;27;20074;-80
2022/12/10 09:16:35;;;;;;;171.10;50.28;;;-1.20;99.90;;;;;;5112394;27;20035;-79
2022/12/10 09:19:02;;;;;;;179.82;49.50;;;-1.10;99.90;;;;;;5115473;27;20047;-78
2022/12/10 09:21:30;;;;;;;180.45;49.40;;;-1.20;99.90;;;;;;5113887;27;20143;-79
2022/12/10 09:23:55;;;;;;;158.30;47.03;;;-1.10;99.90;;;;;;5114837;27;20057;-78
2022/12/10 09:26:22;;;;;;;167.10;49.08;;;-1.10;99.90;;;;;;5077851;27;20047;-80
2022/12/10 09:28:48;;;;;;;172.18;47.88;;;-1.10;99.90;;;;;;5093972;27;20042;-88
2022/12/10 09:31:15;;;;;;;168.15;48.05;;;-1.00;99.90;;;;;;5086358;28;20504;-81
2022/12/10 09:33:42;;;;;;;180.90;47.97;;;-0.90;99.90;;;;;;5115726;27;20373;-79
2022/12/10 09:36:10;;;;;;;165.20;47.78;;;-0.80;99.90;;;;;;5124521;27;20031;-79
2022/12/10 09:38:38;;;;;;;175.52;47.38;;;-0.80;99.90;;;;;;5114649;27;20035;-80
2022/12/10 09:41:25;;;;;;;162.48;45.92;;;-0.70;99.90;;;;;;5128492;27;20043;-80
2022/12/10 09:44:29;;;;;;;164.95;46.47;;;-0.60;99.90;;;;;;5108515;27;20121;-83
2022/12/10 09:46:58;;;;;;;168.27;46.38;;;-0.60;99.90;;;;;;5120232;27;20119;-80
2022/12/10 09:49:32;;;;;;;162.80;46.63;;;-0.60;99.90;;;;;;5119514;27;20708;-81
2022/12/10 09:52:01;;;;;;;172.10;48.53;;;-0.60;99.90;;;;;;5114402;27;20122;-85
2022/12/10 09:54:31;;;;;;;182.35;48.78;;;-0.60;99.90;;;;;;5112803;27;20506;-80
2022/12/10 09:56:59;;;;;;;154.50;46.63;;;-0.50;99.90;;;;;;5114211;27;20070;-79
2022/12/10 09:59:27;;;;;;;170.77;49.55;;;-0.60;99.90;;;;;;5097660;28;20092;-79
2022/12/10 10:02:12;;;;;;;158.70;45.97;;;-0.60;99.90;;;;;;5096961;28;20051;-86
2022/12/10 10:04:38;;;;;;;170.50;49.70;;;-0.70;99.90;;;;;;5103680;28;20047;-81
2022/12/10 10:07:05;;;;;;;169.27;48.17;;;-0.70;99.90;;;;;;5095002;28;20039;-81
2022/12/10 10:09:37;;;;;;;168.18;47.30;;;-0.80;99.90;;;;;;5091102;28;20126;-78
2022/12/10 10:12:07;;;;;;;175.80;47.38;;;-0.80;99.90;;;;;;5111226;28;20050;-81
2022/12/10 10:14:33;;;;;;;166.35;47.75;;;-0.80;99.90;;;;;;5098003;28;20035;-81
2022/12/10 10:17:08;;;;;;;172.40;48.80;;;-0.80;99.90;;;;;;5095624;28;20095;-82
2022/12/10 10:19:37;;;;;;;165.52;47.92;;;-0.80;99.90;;;;;;5113748;28;20054;-81
2022/12/10 10:22:04;;;;;;;155.45;47.70;;;-0.70;99.90;;;;;;5093456;28;20126;-81
2022/12/10 10:24:36;;;;;;;157.88;45.97;;;-0.80;99.90;;;;;;5093875;28;20065;-81
2022/12/10 10:27:15;;;;;;;146.18;44.95;;;-0.70;99.90;;;;;;5091104;28;20051;-80
2022/12/10 10:29:46;;;;;;;148.73;44.33;;;-0.70;99.90;;;;;;5092293;28;20064;-81
2022/12/10 10:32:15;;;;;;;168.00;48.25;;;-0.60;99.90;;;;;;5093488;28;20136;-80
2022/12/10 10:34:42;;;;;;;152.98;46.78;;;-0.40;99.90;;;;;;5113514;28;20039;-80
2022/12/10 10:37:19;;;;;;;158.10;46.42;;;-0.40;99.90;;;;;;5112510;28;20047;-80
2022/12/10 10:39:50;;;;;;;156.20;44.70;;;-0.40;99.90;;;;;;5095817;28;20040;-81
2022/12/10 10:42:39;;;;;;;153.52;45.70;;;-0.40;99.90;;;;;;5095153;27;20055;-82
2022/12/10 10:45:26;;;;;;;147.18;45.55;;;-0.40;99.90;;;;;;5102166;27;20047;-82
2022/12/10 10:48:08;;;;;;;143.98;42.85;;;-0.40;99.90;;;;;;5102757;27;20105;-82
2022/12/10 10:51:12;;;;;;;150.18;45.10;;;-0.40;99.90;;;;;;5116103;27;20079;-79
2022/12/10 10:53:38;;;;;;;149.85;43.83;;;-0.30;99.90;;;;;;5109449;28;20498;-81
2022/12/10 10:56:17;;;;;;;145.88;43.33;;;-0.30;99.90;;;;;;5100735;28;20055;-81
2022/12/10 10:59:02;;;;;;;146.65;45.75;;;-0.30;99.90;;;;;;5110331;28;20046;-80
2022/12/10 11:01:50;;;;;;;146.05;44.22;;;-0.40;99.90;;;;;;5096799;28;20440;-80
2022/12/10 11:04:18;;;;;;;157.63;46.60;;;-0.40;99.90;;;;;;5084941;28;20047;-80
2022/12/10 11:06:45;;;;;;;154.43;44.40;;;-0.40;99.90;;;;;;5099846;28;20051;-79
2022/12/10 11:09:21;;;;;;;144.82;44.40;;;-0.50;99.90;;;;;;5113331;28;20078;-79
2022/12/10 11:12:02;;;;;;;165.45;45.97;;;-0.50;99.90;;;;;;5111260;28;20051;-79
2022/12/10 11:14:33;;;;;;;153.45;45.03;;;-0.40;99.90;;;;;;5113936;27;20104;-79
2022/12/10 11:17:11;;;;;;;162.85;46.35;;;-0.40;99.90;;;;;;5107727;27;20468;-80
2022/12/10 11:20:14;;;;;;;159.40;46.85;;;-0.20;99.90;;;;;;5098795;27;20392;-81
2022/12/10 11:22:49;;;;;;;162.73;45.83;;;-0.30;99.90;;;;;;5103916;27;20051;-83
2022/12/10 11:25:15;;;;;;;161.13;45.85;;;-0.20;99.90;;;;;;5100010;27;20130;-80
2022/12/10 11:28:02;;;;;;;159.13;44.88;;;-0.20;99.90;;;;;;5095989;28;20146;-79
2022/12/10 11:30:36;;;;;;;162.68;45.35;;;-0.20;99.90;;;;;;5122577;27;20087;-81
2022/12/10 11:33:21;;;;;;;161.07;44.78;;;-0.30;99.90;;;;;;5106785;28;20079;-79
2022/12/10 11:36:06;;;;;;;160.75;46.00;;;-0.30;99.90;;;;;;5109429;27;20054;-79
2022/12/10 11:39:12;;;;;;;153.30;45.05;;;-0.30;99.90;;;;;;5114216;27;20074;-79
2022/12/10 11:41:41;;;;;;;148.35;42.47;;;-0.20;99.90;;;;;;5078543;27;20059;-80
2022/12/10 11:44:14;;;;;;;166.18;46.25;;;-0.30;99.90;;;;;;5100017;27;20461;-84
2022/12/10 11:47:06;;;;;;;170.95;47.03;;;-0.30;99.90;;;;;;5099880;27;20043;-79
2022/12/10 11:50:09;;;;;;;145.80;44.42;;;-0.40;99.90;;;;;;5113324;27;20043;-79
2022/12/10 11:53:03;;;;;;;175.27;50.15;;;-0.40;99.90;;;;;;5093089;28;20051;-80
2022/12/10 11:56:13;;;;;;;165.38;42.78;;;-0.40;99.90;;;;;;5094536;27;20063;-80
2022/12/10 11:59:12;;;;;;;153.00;42.50;;;-0.30;99.90;;;;;;5091427;27;20146;-80
2022/12/10 12:01:46;;;;;;;131.45;39.53;;;-0.40;99.90;;;;;;5097923;27;20137;-81
2022/12/10 12:04:27;;;;;;;148.18;41.17;;;-0.40;99.90;;;;;;5104939;27;20134;-82
2022/12/10 12:06:53;;;;;;;139.95;40.42;;;-0.40;99.90;;;;;;5110508;27;20091;-80
2022/12/10 12:09:47;;;;;;;145.70;45.47;;;-0.50;99.90;;;;;;5124014;27;20051;-81
2022/12/10 12:12:37;;;;;;;143.13;41.00;;;-0.40;99.90;;;;;;5088701;27;20047;-80
2022/12/10 12:15:16;;;;;;;120.38;38.65;;;-0.40;99.90;;;;;;5115438;27;20035;-80
2022/12/10 12:17:51;;;;;;;127.97;37.33;;;-0.30;99.90;;;;;;5098718;27;20134;-80
2022/12/10 12:20:25;;;;;;;119.93;38.80;;;-0.40;99.90;;;;;;5110239;27;20031;-80
2022/12/10 12:23:24;;;;;;;128.38;42.28;;;-0.30;99.90;;;;;;5098686;27;20051;-79
2022/12/10 12:26:02;;;;;;;136.88;41.22;;;-0.30;99.90;;;;;;5092762;27;20066;-81
2022/12/10 12:28:41;;;;;;;133.32;38.28;;;-0.20;99.90;;;;;;5109779;27;20574;-80
2022/12/10 12:31:30;;;;;;;132.98;38.78;;;-0.20;99.90;;;;;;5098437;27;20046;-80
2022/12/10 12:34:22;;;;;;;137.82;40.83;;;-0.30;99.90;;;;;;5115969;27;20054;-80
2022/12/10 12:36:48;;;;;;;139.05;40.40;;;-0.30;99.90;;;;;;5099307;28;20145;-81
2022/12/10 12:39:17;;;;;;;131.50;41.67;;;-0.30;99.90;;;;;;5079644;27;20044;-84
2022/12/10 12:42:03;;;;;;;126.68;39.58;;;-0.40;99.90;;;;;;5087124;28;20055;-80
2022/12/10 12:44:43;;;;;;;130.55;44.15;;;-0.30;99.90;;;;;;5096577;27;20135;-80